Cfl Performer — PHLY — position and weather

sailwx.info

Track history (hours):
 
Tides and Currents Weather Stations Pressure Air Temp Water Temp Dewpoint Dewpoint Depression Visibility Wind Speed Wind Dir Waves Ship Positions

Cfl Performer

Last reported at 2015-Jul-29 22:30 UTC. Time now 2015-Jul-30 00:03 UTC.
Position N 31°16' W 010°43'.

Length 117 m; draft 3.8 m.

Type: Cargo ship. MMSI: 244989000.

Date/timePositionNaut miles runAvg speedWind from/ knotsBaromVisibWave heightAir tempDewpointWater temp
2015-Jul-29 22:30N 31°16' W 010°43'8 8.9
2015-Jul-29 21:32N 31°10' W 010°50'175 9.5
2015-Jul-29 03:12N 28°58' W 013°02'6 9.6
2015-Jul-29 02:32N 28°53' W 013°07'22 9.5
2015-Jul-29 00:15N 28°36' W 013°23'6 9.1
2015-Jul-28 23:33N 28°32' W 013°28'12 9.7
2015-Jul-28 22:19N 28°22' W 013°37'810.3
2015-Jul-28 21:32N 28°16' W 013°42'1010.5
2015-Jul-28 20:34N 28°09' W 013°50'1010.1
2015-Jul-28 19:34N 28°01' W 013°58'10 9.7
2015-Jul-28 18:34N 27°54' W 014°05'10 9.8
2015-Jul-28 17:33N 27°47' W 014°13'1010.2
2015-Jul-28 16:34N 27°39' W 014°21'1010.3
2015-Jul-28 15:33N 27°32' W 014°29'1010.4
2015-Jul-28 14:33N 27°24' W 014°37'1010.2
2015-Jul-28 13:32N 27°16' W 014°45'  
Track history (hours):
 
Tides and Currents Weather Stations Pressure Air Temp Water Temp Dewpoint Dewpoint Depression Visibility Wind Speed Wind Dir Waves Ship Positions

Cfl Performer

Last reported at 2015-Jul-29 22:30 UTC. Time now 2015-Jul-30 00:03 UTC.
Position N 31°16' W 010°43'.

Length 117 m; draft 3.8 m.

Type: Cargo ship. MMSI: 244989000.

Date/timePositionNaut miles runAvg speedWind from/ knotsBaromVisibWave heightAir tempDewpointWater temp
2015-Jul-29 22:30N 31°16' W 010°43'8 8.9
2015-Jul-29 21:32N 31°10' W 010°50'175 9.5
2015-Jul-29 03:12N 28°58' W 013°02'6 9.6
2015-Jul-29 02:32N 28°53' W 013°07'22 9.5
2015-Jul-29 00:15N 28°36' W 013°23'6 9.1
2015-Jul-28 23:33N 28°32' W 013°28'12 9.7
2015-Jul-28 22:19N 28°22' W 013°37'810.3
2015-Jul-28 21:32N 28°16' W 013°42'1010.5
2015-Jul-28 20:34N 28°09' W 013°50'1010.1
2015-Jul-28 19:34N 28°01' W 013°58'10 9.7
2015-Jul-28 18:34N 27°54' W 014°05'10 9.8
2015-Jul-28 17:33N 27°47' W 014°13'1010.2
2015-Jul-28 16:34N 27°39' W 014°21'1010.3
2015-Jul-28 15:33N 27°32' W 014°29'1010.4
2015-Jul-28 14:33N 27°24' W 014°37'1010.2
2015-Jul-28 13:32N 27°16' W 014°45'  

Dump ship's entire track history